sensor_id;sensor_type;location;lat;lon;timestamp;P1;durP1;ratioP1;P2;durP2;ratioP2
57301;SDS011;43149;50.974;18.224;2023-09-19T00:09:35;15.10;;;11.60;;
57301;SDS011;43149;50.974;18.224;2023-09-19T00:19:26;20.80;;;13.90;;
57301;SDS011;43149;50.974;18.224;2023-09-19T00:29:12;15.00;;;11.10;;
57301;SDS011;43149;50.974;18.224;2023-09-19T00:39:04;13.00;;;11.60;;
57301;SDS011;43149;50.974;18.224;2023-09-19T00:48:53;30.80;;;9.20;;
57301;SDS011;43149;50.974;18.224;2023-09-19T00:58:40;16.70;;;13.40;;
57301;SDS011;43149;50.974;18.224;2023-09-19T01:08:27;9.10;;;8.20;;
57301;SDS011;43149;50.974;18.224;2023-09-19T01:18:49;8.30;;;5.10;;
57301;SDS011;43149;50.974;18.224;2023-09-19T01:29:30;8.40;;;7.60;;
57301;SDS011;43149;50.974;18.224;2023-09-19T01:39:49;6.00;;;5.50;;
57301;SDS011;43149;50.974;18.224;2023-09-19T01:49:58;19.30;;;10.40;;
57301;SDS011;43149;50.974;18.224;2023-09-19T02:09:57;21.00;;;11.30;;
57301;SDS011;43149;50.974;18.224;2023-09-19T02:19:42;14.90;;;12.60;;
57301;SDS011;43149;50.974;18.224;2023-09-19T02:29:30;12.20;;;10.90;;
57301;SDS011;43149;50.974;18.224;2023-09-19T02:39:13;15.20;;;11.00;;
57301;SDS011;43149;50.974;18.224;2023-09-19T02:48:59;17.00;;;13.40;;
57301;SDS011;43149;50.974;18.224;2023-09-19T02:58:48;14.00;;;11.90;;
57301;SDS011;43149;50.974;18.224;2023-09-19T03:08:34;16.50;;;13.90;;
57301;SDS011;43149;50.974;18.224;2023-09-19T03:18:33;24.30;;;16.00;;
57301;SDS011;43149;50.974;18.224;2023-09-19T03:28:18;15.50;;;11.90;;
57301;SDS011;43149;50.974;18.224;2023-09-19T03:38:05;25.50;;;12.30;;
57301;SDS011;43149;50.974;18.224;2023-09-19T03:47:49;14.30;;;11.10;;
57301;SDS011;43149;50.974;18.224;2023-09-19T03:57:37;9.50;;;7.80;;
57301;SDS011;43149;50.974;18.224;2023-09-19T04:07:29;12.80;;;9.10;;
57301;SDS011;43149;50.974;18.224;2023-09-19T04:17:12;8.10;;;7.30;;
57301;SDS011;43149;50.974;18.224;2023-09-19T04:26:57;8.90;;;4.80;;
57301;SDS011;43149;50.974;18.224;2023-09-19T04:36:43;5.00;;;4.60;;
57301;SDS011;43149;50.974;18.224;2023-09-19T04:53:55;19.90;;;3.90;;
57301;SDS011;43149;50.974;18.224;2023-09-19T05:03:40;5.00;;;3.50;;
57301;SDS011;43149;50.974;18.224;2023-09-19T05:13:27;22.10;;;4.20;;
57301;SDS011;43149;50.974;18.224;2023-09-19T05:23:09;4.30;;;3.10;;
57301;SDS011;43149;50.974;18.224;2023-09-19T05:33:01;0.80;;;0.80;;
57301;SDS011;43149;50.974;18.224;2023-09-19T05:42:49;7.50;;;4.60;;
57301;SDS011;43149;50.974;18.224;2023-09-19T05:52:40;9.20;;;2.50;;
57301;SDS011;43149;50.974;18.224;2023-09-19T06:02:36;5.20;;;3.90;;
57301;SDS011;43149;50.974;18.224;2023-09-19T06:12:38;4.10;;;2.90;;
57301;SDS011;43149;50.974;18.224;2023-09-19T06:22:38;17.30;;;4.50;;
57301;SDS011;43149;50.974;18.224;2023-09-19T06:32:28;2.70;;;2.50;;
57301;SDS011;43149;50.974;18.224;2023-09-19T06:42:16;4.10;;;2.80;;
57301;SDS011;43149;50.974;18.224;2023-09-19T06:52:01;2.20;;;2.10;;
57301;SDS011;43149;50.974;18.224;2023-09-19T07:01:51;3.50;;;3.30;;
57301;SDS011;43149;50.974;18.224;2023-09-19T07:11:41;7.20;;;6.50;;
57301;SDS011;43149;50.974;18.224;2023-09-19T07:21:30;2.30;;;2.10;;
57301;SDS011;43149;50.974;18.224;2023-09-19T07:31:23;11.70;;;2.40;;
57301;SDS011;43149;50.974;18.224;2023-09-19T07:41:09;6.00;;;2.40;;
57301;SDS011;43149;50.974;18.224;2023-09-19T07:50:55;20.80;;;1.80;;
57301;SDS011;43149;50.974;18.224;2023-09-19T08:00:41;4.30;;;1.60;;
57301;SDS011;43149;50.974;18.224;2023-09-19T08:10:28;3.50;;;1.80;;
57301;SDS011;43149;50.974;18.224;2023-09-19T08:20:18;7.70;;;3.30;;
57301;SDS011;43149;50.974;18.224;2023-09-19T08:30:13;7.80;;;2.40;;
57301;SDS011;43149;50.974;18.224;2023-09-19T08:40:00;3.20;;;2.40;;
57301;SDS011;43149;50.974;18.224;2023-09-19T08:50:02;3.10;;;1.70;;
57301;SDS011;43149;50.974;18.224;2023-09-19T09:00:06;4.40;;;3.50;;
57301;SDS011;43149;50.974;18.224;2023-09-19T09:10:00;2.60;;;1.80;;
57301;SDS011;43149;50.974;18.224;2023-09-19T09:19:47;2.10;;;1.50;;
57301;SDS011;43149;50.974;18.224;2023-09-19T09:30:02;9.10;;;3.40;;
57301;SDS011;43149;50.974;18.224;2023-09-19T09:39:54;1.70;;;1.40;;
57301;SDS011;43149;50.974;18.224;2023-09-19T09:50:46;5.40;;;2.40;;
57301;SDS011;43149;50.974;18.224;2023-09-19T10:00:58;2.10;;;1.90;;
57301;SDS011;43149;50.974;18.224;2023-09-19T10:11:43;7.50;;;3.00;;
57301;SDS011;43149;50.974;18.224;2023-09-19T10:21:48;5.10;;;2.00;;
57301;SDS011;43149;50.974;18.224;2023-09-19T10:31:36;1.50;;;1.30;;
57301;SDS011;43149;50.974;18.224;2023-09-19T10:41:27;0.40;;;0.40;;
57301;SDS011;43149;50.974;18.224;2023-09-19T10:51:21;5.20;;;2.50;;
57301;SDS011;43149;50.974;18.224;2023-09-19T11:12:31;14.30;;;6.20;;
57301;SDS011;43149;50.974;18.224;2023-09-19T11:17:36;5.10;;;2.20;;
57301;SDS011;43149;50.974;18.224;2023-09-19T11:46:17;3.90;;;1.80;;
57301;SDS011;43149;50.974;18.224;2023-09-19T12:03:52;14.50;;;1.10;;
57301;SDS011;43149;50.974;18.224;2023-09-19T12:13:47;16.60;;;1.40;;
57301;SDS011;43149;50.974;18.224;2023-09-19T12:23:59;7.60;;;0.60;;
57301;SDS011;43149;50.974;18.224;2023-09-19T12:34:02;1.20;;;1.10;;
57301;SDS011;43149;50.974;18.224;2023-09-19T12:43:59;1.70;;;1.00;;
57301;SDS011;43149;50.974;18.224;2023-09-19T12:54:10;4.10;;;2.40;;
57301;SDS011;43149;50.974;18.224;2023-09-19T13:31:48;0.80;;;0.80;;
57301;SDS011;43149;50.974;18.224;2023-09-19T13:41:38;1.60;;;0.60;;
57301;SDS011;43149;50.974;18.224;2023-09-19T13:51:27;1.60;;;1.50;;
57301;SDS011;43149;50.974;18.224;2023-09-19T14:01:13;1.90;;;1.60;;
57301;SDS011;43149;50.974;18.224;2023-09-19T14:10:58;3.50;;;0.60;;
57301;SDS011;43149;50.974;18.224;2023-09-19T14:20:43;1.50;;;0.80;;
57301;SDS011;43149;50.974;18.224;2023-09-19T14:30:27;7.70;;;4.30;;
57301;SDS011;43149;50.974;18.224;2023-09-19T14:40:11;2.00;;;1.40;;
57301;SDS011;43149;50.974;18.224;2023-09-19T14:50:00;0.80;;;0.80;;
57301;SDS011;43149;50.974;18.224;2023-09-19T14:59:45;1.10;;;0.70;;
57301;SDS011;43149;50.974;18.224;2023-09-19T15:09:31;1.60;;;1.50;;
57301;SDS011;43149;50.974;18.224;2023-09-19T15:19:16;3.90;;;2.50;;
57301;SDS011;43149;50.974;18.224;2023-09-19T15:29:07;2.60;;;1.10;;
57301;SDS011;43149;50.974;18.224;2023-09-19T15:38:58;6.70;;;2.90;;
57301;SDS011;43149;50.974;18.224;2023-09-19T15:48:45;4.40;;;2.70;;
57301;SDS011;43149;50.974;18.224;2023-09-19T15:58:40;1.60;;;0.90;;
57301;SDS011;43149;50.974;18.224;2023-09-19T16:08:33;1.70;;;1.00;;
57301;SDS011;43149;50.974;18.224;2023-09-19T16:18:20;3.80;;;3.20;;
57301;SDS011;43149;50.974;18.224;2023-09-19T16:28:04;2.70;;;2.10;;
57301;SDS011;43149;50.974;18.224;2023-09-19T16:35:25;8.10;;;1.70;;
57301;SDS011;43149;50.974;18.224;2023-09-19T16:45:08;2.00;;;1.80;;
57301;SDS011;43149;50.974;18.224;2023-09-19T16:54:56;1.80;;;1.70;;
57301;SDS011;43149;50.974;18.224;2023-09-19T17:04:43;18.10;;;4.10;;
57301;SDS011;43149;50.974;18.224;2023-09-19T17:14:28;8.10;;;2.90;;
57301;SDS011;43149;50.974;18.224;2023-09-19T17:24:15;1.80;;;1.70;;
57301;SDS011;43149;50.974;18.224;2023-09-19T17:34:02;6.80;;;4.80;;
57301;SDS011;43149;50.974;18.224;2023-09-19T17:43:53;8.40;;;4.70;;
57301;SDS011;43149;50.974;18.224;2023-09-19T17:53:49;5.30;;;4.80;;
57301;SDS011;43149;50.974;18.224;2023-09-19T18:03:41;15.90;;;10.80;;
57301;SDS011;43149;50.974;18.224;2023-09-19T18:13:27;8.80;;;5.80;;
57301;SDS011;43149;50.974;18.224;2023-09-19T18:23:12;7.10;;;4.80;;
57301;SDS011;43149;50.974;18.224;2023-09-19T18:32:57;9.50;;;5.80;;
57301;SDS011;43149;50.974;18.224;2023-09-19T18:42:46;8.30;;;3.40;;
57301;SDS011;43149;50.974;18.224;2023-09-19T18:52:34;3.30;;;2.70;;
57301;SDS011;43149;50.974;18.224;2023-09-19T19:02:35;1.70;;;1.60;;
57301;SDS011;43149;50.974;18.224;2023-09-19T19:12:24;4.90;;;2.50;;
57301;SDS011;43149;50.974;18.224;2023-09-19T19:22:10;4.70;;;1.80;;
57301;SDS011;43149;50.974;18.224;2023-09-19T19:31:55;1.70;;;1.60;;
57301;SDS011;43149;50.974;18.224;2023-09-19T19:41:43;2.50;;;1.40;;
57301;SDS011;43149;50.974;18.224;2023-09-19T19:51:33;3.40;;;2.50;;
57301;SDS011;43149;50.974;18.224;2023-09-19T20:01:25;1.60;;;1.50;;
57301;SDS011;43149;50.974;18.224;2023-09-19T20:11:11;2.00;;;1.90;;
57301;SDS011;43149;50.974;18.224;2023-09-19T20:21:03;3.60;;;2.70;;
57301;SDS011;43149;50.974;18.224;2023-09-19T20:31:09;1.20;;;1.10;;
57301;SDS011;43149;50.974;18.224;2023-09-19T20:41:01;1.30;;;1.20;;
57301;SDS011;43149;50.974;18.224;2023-09-19T20:50:53;13.70;;;4.20;;
57301;SDS011;43149;50.974;18.224;2023-09-19T21:00:41;8.50;;;3.70;;
57301;SDS011;43149;50.974;18.224;2023-09-19T21:10:31;13.50;;;4.70;;
57301;SDS011;43149;50.974;18.224;2023-09-19T21:20:18;10.10;;;5.30;;
57301;SDS011;43149;50.974;18.224;2023-09-19T21:30:05;3.40;;;2.90;;
57301;SDS011;43149;50.974;18.224;2023-09-19T21:39:52;2.30;;;2.20;;
57301;SDS011;43149;50.974;18.224;2023-09-19T21:49:35;14.00;;;3.30;;
57301;SDS011;43149;50.974;18.224;2023-09-19T21:59:20;2.30;;;1.80;;
57301;SDS011;43149;50.974;18.224;2023-09-19T22:09:04;3.90;;;2.90;;
57301;SDS011;43149;50.974;18.224;2023-09-19T22:18:50;5.70;;;4.00;;
57301;SDS011;43149;50.974;18.224;2023-09-19T22:29:03;5.20;;;3.40;;
57301;SDS011;43149;50.974;18.224;2023-09-19T22:39:17;3.10;;;2.70;;
57301;SDS011;43149;50.974;18.224;2023-09-19T22:49:09;14.30;;;7.90;;
57301;SDS011;43149;50.974;18.224;2023-09-19T22:59:17;5.20;;;4.80;;
57301;SDS011;43149;50.974;18.224;2023-09-19T23:09:18;8.40;;;5.70;;
57301;SDS011;43149;50.974;18.224;2023-09-19T23:19:33;4.80;;;4.40;;
57301;SDS011;43149;50.974;18.224;2023-09-19T23:27:43;16.70;;;10.80;;
57301;SDS011;43149;50.974;18.224;2023-09-19T23:37:35;3.20;;;3.00;;
57301;SDS011;43149;50.974;18.224;2023-09-19T23:47:20;4.90;;;3.20;;
57301;SDS011;43149;50.974;18.224;2023-09-19T23:57:06;4.80;;;3.90;;
